sensor_id;sensor_type;location;lat;lon;timestamp;P1;durP1;ratioP1;P2;durP2;ratioP2
55539;SDS011;41384;51.418;7.286;2022-07-22T00:02:14;11.73;;;8.63;;
55539;SDS011;41384;51.418;7.286;2022-07-22T00:04:40;11.05;;;8.30;;
55539;SDS011;41384;51.418;7.286;2022-07-22T00:07:05;11.60;;;7.68;;
55539;SDS011;41384;51.418;7.286;2022-07-22T00:09:30;10.73;;;7.63;;
55539;SDS011;41384;51.418;7.286;2022-07-22T00:11:56;10.23;;;7.40;;
55539;SDS011;41384;51.418;7.286;2022-07-22T00:14:21;9.30;;;6.65;;
55539;SDS011;41384;51.418;7.286;2022-07-22T00:16:46;9.52;;;7.20;;
55539;SDS011;41384;51.418;7.286;2022-07-22T00:19:12;8.75;;;6.45;;
55539;SDS011;41384;51.418;7.286;2022-07-22T00:21:37;7.35;;;5.97;;
55539;SDS011;41384;51.418;7.286;2022-07-22T00:24:03;8.82;;;6.30;;
55539;SDS011;41384;51.418;7.286;2022-07-22T00:26:29;9.00;;;6.07;;
55539;SDS011;41384;51.418;7.286;2022-07-22T00:28:54;8.00;;;6.43;;
55539;SDS011;41384;51.418;7.286;2022-07-22T00:31:19;11.23;;;7.13;;
55539;SDS011;41384;51.418;7.286;2022-07-22T00:33:45;8.48;;;7.40;;
55539;SDS011;41384;51.418;7.286;2022-07-22T00:36:10;10.20;;;6.60;;
55539;SDS011;41384;51.418;7.286;2022-07-22T00:38:35;8.45;;;6.63;;
55539;SDS011;41384;51.418;7.286;2022-07-22T00:41:01;11.35;;;6.95;;
55539;SDS011;41384;51.418;7.286;2022-07-22T00:43:26;8.85;;;6.40;;
55539;SDS011;41384;51.418;7.286;2022-07-22T00:45:51;8.93;;;6.70;;
55539;SDS011;41384;51.418;7.286;2022-07-22T00:48:17;8.43;;;6.88;;
55539;SDS011;41384;51.418;7.286;2022-07-22T00:50:42;9.65;;;6.70;;
55539;SDS011;41384;51.418;7.286;2022-07-22T00:53:08;7.82;;;6.78;;
55539;SDS011;41384;51.418;7.286;2022-07-22T00:55:33;8.65;;;6.45;;
55539;SDS011;41384;51.418;7.286;2022-07-22T00:58:00;7.82;;;6.72;;
55539;SDS011;41384;51.418;7.286;2022-07-22T01:00:27;8.07;;;6.28;;
55539;SDS011;41384;51.418;7.286;2022-07-22T01:02:52;8.25;;;5.80;;
55539;SDS011;41384;51.418;7.286;2022-07-22T01:05:18;8.55;;;5.97;;
55539;SDS011;41384;51.418;7.286;2022-07-22T01:07:44;9.95;;;6.22;;
55539;SDS011;41384;51.418;7.286;2022-07-22T01:10:09;9.77;;;6.40;;
55539;SDS011;41384;51.418;7.286;2022-07-22T01:12:35;7.65;;;5.93;;
55539;SDS011;41384;51.418;7.286;2022-07-22T01:15:01;8.73;;;6.00;;
55539;SDS011;41384;51.418;7.286;2022-07-22T01:17:27;9.70;;;5.35;;
55539;SDS011;41384;51.418;7.286;2022-07-22T01:19:52;7.45;;;4.90;;
55539;SDS011;41384;51.418;7.286;2022-07-22T01:22:18;7.78;;;4.60;;
55539;SDS011;41384;51.418;7.286;2022-07-22T01:24:43;6.65;;;4.65;;
55539;SDS011;41384;51.418;7.286;2022-07-22T01:27:08;6.43;;;4.80;;
55539;SDS011;41384;51.418;7.286;2022-07-22T01:29:34;7.68;;;4.75;;
55539;SDS011;41384;51.418;7.286;2022-07-22T01:31:59;7.70;;;5.00;;
55539;SDS011;41384;51.418;7.286;2022-07-22T01:34:24;8.73;;;4.93;;
55539;SDS011;41384;51.418;7.286;2022-07-22T01:36:50;7.15;;;4.80;;
55539;SDS011;41384;51.418;7.286;2022-07-22T01:39:15;7.13;;;5.05;;
55539;SDS011;41384;51.418;7.286;2022-07-22T01:41:42;6.72;;;5.35;;
55539;SDS011;41384;51.418;7.286;2022-07-22T01:44:07;7.72;;;5.53;;
55539;SDS011;41384;51.418;7.286;2022-07-22T01:46:33;8.05;;;5.72;;
55539;SDS011;41384;51.418;7.286;2022-07-22T01:48:58;8.65;;;6.07;;
55539;SDS011;41384;51.418;7.286;2022-07-22T01:51:23;9.38;;;6.07;;
55539;SDS011;41384;51.418;7.286;2022-07-22T01:53:49;9.43;;;5.88;;
55539;SDS011;41384;51.418;7.286;2022-07-22T01:56:14;7.68;;;6.07;;
55539;SDS011;41384;51.418;7.286;2022-07-22T01:58:40;11.50;;;6.50;;
55539;SDS011;41384;51.418;7.286;2022-07-22T02:01:06;9.05;;;5.55;;
55539;SDS011;41384;51.418;7.286;2022-07-22T02:03:32;10.20;;;6.63;;
55539;SDS011;41384;51.418;7.286;2022-07-22T02:05:57;8.85;;;5.97;;
55539;SDS011;41384;51.418;7.286;2022-07-22T02:08:23;8.15;;;6.15;;
55539;SDS011;41384;51.418;7.286;2022-07-22T02:10:48;10.30;;;6.45;;
55539;SDS011;41384;51.418;7.286;2022-07-22T02:13:13;9.23;;;6.10;;
55539;SDS011;41384;51.418;7.286;2022-07-22T02:15:39;11.73;;;6.10;;
55539;SDS011;41384;51.418;7.286;2022-07-22T02:18:13;7.75;;;6.10;;
55539;SDS011;41384;51.418;7.286;2022-07-22T02:20:41;11.93;;;6.40;;
55539;SDS011;41384;51.418;7.286;2022-07-22T02:23:07;11.57;;;6.00;;
55539;SDS011;41384;51.418;7.286;2022-07-22T02:25:33;12.55;;;6.53;;
55539;SDS011;41384;51.418;7.286;2022-07-22T02:27:59;10.20;;;7.07;;
55539;SDS011;41384;51.418;7.286;2022-07-22T02:30:25;8.90;;;6.03;;
55539;SDS011;41384;51.418;7.286;2022-07-22T02:32:51;9.88;;;6.97;;
55539;SDS011;41384;51.418;7.286;2022-07-22T02:35:17;12.75;;;7.43;;
55539;SDS011;41384;51.418;7.286;2022-07-22T02:37:42;8.57;;;6.63;;
55539;SDS011;41384;51.418;7.286;2022-07-22T02:40:07;14.10;;;6.97;;
55539;SDS011;41384;51.418;7.286;2022-07-22T02:42:33;13.65;;;7.78;;
55539;SDS011;41384;51.418;7.286;2022-07-22T02:44:59;13.90;;;7.80;;
55539;SDS011;41384;51.418;7.286;2022-07-22T02:47:24;12.30;;;7.47;;
55539;SDS011;41384;51.418;7.286;2022-07-22T02:49:50;11.18;;;6.90;;
55539;SDS011;41384;51.418;7.286;2022-07-22T02:52:16;13.00;;;6.57;;
55539;SDS011;41384;51.418;7.286;2022-07-22T02:54:42;11.25;;;6.78;;
55539;SDS011;41384;51.418;7.286;2022-07-22T02:57:07;9.18;;;6.35;;
55539;SDS011;41384;51.418;7.286;2022-07-22T02:59:32;11.70;;;7.00;;
55539;SDS011;41384;51.418;7.286;2022-07-22T03:01:57;10.18;;;6.60;;
55539;SDS011;41384;51.418;7.286;2022-07-22T03:04:23;8.38;;;5.63;;
55539;SDS011;41384;51.418;7.286;2022-07-22T03:06:48;10.10;;;5.90;;
55539;SDS011;41384;51.418;7.286;2022-07-22T03:09:13;11.80;;;6.68;;
55539;SDS011;41384;51.418;7.286;2022-07-22T03:11:39;11.50;;;6.57;;
55539;SDS011;41384;51.418;7.286;2022-07-22T03:14:04;9.45;;;6.25;;
55539;SDS011;41384;51.418;7.286;2022-07-22T03:16:29;9.77;;;6.18;;
55539;SDS011;41384;51.418;7.286;2022-07-22T03:18:54;9.65;;;5.88;;
55539;SDS011;41384;51.418;7.286;2022-07-22T03:21:20;12.02;;;6.85;;
55539;SDS011;41384;51.418;7.286;2022-07-22T03:23:45;14.65;;;7.13;;
55539;SDS011;41384;51.418;7.286;2022-07-22T03:26:10;10.27;;;5.95;;
55539;SDS011;41384;51.418;7.286;2022-07-22T03:28:36;10.40;;;6.35;;
55539;SDS011;41384;51.418;7.286;2022-07-22T03:31:01;13.88;;;7.85;;
55539;SDS011;41384;51.418;7.286;2022-07-22T03:33:26;13.70;;;8.35;;
55539;SDS011;41384;51.418;7.286;2022-07-22T03:35:51;19.15;;;8.85;;
55539;SDS011;41384;51.418;7.286;2022-07-22T03:38:17;15.88;;;8.38;;
55539;SDS011;41384;51.418;7.286;2022-07-22T03:40:42;13.10;;;8.07;;
55539;SDS011;41384;51.418;7.286;2022-07-22T03:43:07;13.20;;;7.40;;
55539;SDS011;41384;51.418;7.286;2022-07-22T03:45:33;10.43;;;5.38;;
55539;SDS011;41384;51.418;7.286;2022-07-22T03:47:58;7.13;;;3.95;;
55539;SDS011;41384;51.418;7.286;2022-07-22T03:50:24;8.05;;;4.18;;
55539;SDS011;41384;51.418;7.286;2022-07-22T03:52:50;10.93;;;4.22;;
55539;SDS011;41384;51.418;7.286;2022-07-22T03:55:15;8.20;;;4.63;;
55539;SDS011;41384;51.418;7.286;2022-07-22T03:57:40;5.50;;;3.97;;
55539;SDS011;41384;51.418;7.286;2022-07-22T04:00:06;9.63;;;4.55;;
55539;SDS011;41384;51.418;7.286;2022-07-22T04:02:32;6.82;;;4.35;;
55539;SDS011;41384;51.418;7.286;2022-07-22T04:04:57;7.80;;;4.38;;
55539;SDS011;41384;51.418;7.286;2022-07-22T04:07:22;10.75;;;4.63;;
55539;SDS011;41384;51.418;7.286;2022-07-22T04:09:47;8.15;;;4.50;;
55539;SDS011;41384;51.418;7.286;2022-07-22T04:12:13;11.32;;;5.00;;
55539;SDS011;41384;51.418;7.286;2022-07-22T04:14:38;7.88;;;3.55;;
55539;SDS011;41384;51.418;7.286;2022-07-22T04:17:03;9.02;;;3.28;;
55539;SDS011;41384;51.418;7.286;2022-07-22T04:19:29;7.85;;;3.30;;
55539;SDS011;41384;51.418;7.286;2022-07-22T04:21:54;6.88;;;2.95;;
55539;SDS011;41384;51.418;7.286;2022-07-22T04:24:19;7.60;;;3.25;;
55539;SDS011;41384;51.418;7.286;2022-07-22T04:26:44;6.47;;;3.28;;
55539;SDS011;41384;51.418;7.286;2022-07-22T04:29:10;5.88;;;3.03;;
55539;SDS011;41384;51.418;7.286;2022-07-22T04:31:35;8.13;;;3.60;;
55539;SDS011;41384;51.418;7.286;2022-07-22T04:34:00;5.00;;;2.83;;
55539;SDS011;41384;51.418;7.286;2022-07-22T04:36:25;7.25;;;3.25;;
55539;SDS011;41384;51.418;7.286;2022-07-22T04:38:51;7.25;;;3.20;;
55539;SDS011;41384;51.418;7.286;2022-07-22T04:41:16;12.95;;;3.42;;
55539;SDS011;41384;51.418;7.286;2022-07-22T04:43:42;3.95;;;2.80;;
55539;SDS011;41384;51.418;7.286;2022-07-22T04:46:07;5.65;;;3.17;;
55539;SDS011;41384;51.418;7.286;2022-07-22T04:48:33;6.28;;;3.35;;
55539;SDS011;41384;51.418;7.286;2022-07-22T04:50:59;7.20;;;3.30;;
55539;SDS011;41384;51.418;7.286;2022-07-22T04:53:25;5.57;;;3.42;;
55539;SDS011;41384;51.418;7.286;2022-07-22T04:55:51;6.82;;;3.08;;
55539;SDS011;41384;51.418;7.286;2022-07-22T04:58:16;11.40;;;3.60;;
55539;SDS011;41384;51.418;7.286;2022-07-22T05:00:41;5.70;;;3.13;;
55539;SDS011;41384;51.418;7.286;2022-07-22T05:03:07;8.50;;;3.30;;
55539;SDS011;41384;51.418;7.286;2022-07-22T05:05:33;5.93;;;3.30;;
55539;SDS011;41384;51.418;7.286;2022-07-22T05:07:59;7.40;;;3.60;;
55539;SDS011;41384;51.418;7.286;2022-07-22T05:10:24;10.30;;;3.28;;
55539;SDS011;41384;51.418;7.286;2022-07-22T05:12:49;11.20;;;3.00;;
55539;SDS011;41384;51.418;7.286;2022-07-22T05:15:14;8.23;;;3.65;;
55539;SDS011;41384;51.418;7.286;2022-07-22T05:17:40;7.95;;;3.40;;
55539;SDS011;41384;51.418;7.286;2022-07-22T05:20:05;7.20;;;4.28;;
55539;SDS011;41384;51.418;7.286;2022-07-22T05:22:31;7.15;;;3.45;;
55539;SDS011;41384;51.418;7.286;2022-07-22T05:24:56;9.38;;;3.70;;
55539;SDS011;41384;51.418;7.286;2022-07-22T05:27:21;5.60;;;3.20;;
55539;SDS011;41384;51.418;7.286;2022-07-22T05:29:47;7.97;;;3.67;;
55539;SDS011;41384;51.418;7.286;2022-07-22T05:32:12;7.03;;;3.97;;
55539;SDS011;41384;51.418;7.286;2022-07-22T05:34:37;7.28;;;3.40;;
55539;SDS011;41384;51.418;7.286;2022-07-22T05:37:02;6.88;;;3.40;;
55539;SDS011;41384;51.418;7.286;2022-07-22T05:39:28;10.60;;;4.00;;
55539;SDS011;41384;51.418;7.286;2022-07-22T05:41:53;6.28;;;3.75;;
55539;SDS011;41384;51.418;7.286;2022-07-22T05:44:18;9.52;;;3.63;;
55539;SDS011;41384;51.418;7.286;2022-07-22T05:46:44;7.35;;;3.90;;
55539;SDS011;41384;51.418;7.286;2022-07-22T05:49:09;6.95;;;3.88;;
55539;SDS011;41384;51.418;7.286;2022-07-22T05:51:34;7.47;;;3.78;;
55539;SDS011;41384;51.418;7.286;2022-07-22T05:53:59;7.38;;;4.20;;
55539;SDS011;41384;51.418;7.286;2022-07-22T05:56:27;8.88;;;3.80;;
55539;SDS011;41384;51.418;7.286;2022-07-22T05:58:52;11.57;;;3.65;;
55539;SDS011;41384;51.418;7.286;2022-07-22T06:01:17;7.68;;;3.08;;
55539;SDS011;41384;51.418;7.286;2022-07-22T06:03:43;7.05;;;3.28;;
55539;SDS011;41384;51.418;7.286;2022-07-22T06:06:08;5.38;;;3.00;;
55539;SDS011;41384;51.418;7.286;2022-07-22T06:08:34;8.40;;;2.97;;
55539;SDS011;41384;51.418;7.286;2022-07-22T06:11:00;7.93;;;2.97;;
55539;SDS011;41384;51.418;7.286;2022-07-22T06:13:26;6.97;;;3.10;;
55539;SDS011;41384;51.418;7.286;2022-07-22T06:15:52;7.85;;;2.85;;
55539;SDS011;41384;51.418;7.286;2022-07-22T06:18:17;7.60;;;3.42;;
55539;SDS011;41384;51.418;7.286;2022-07-22T06:20:42;7.03;;;2.67;;
55539;SDS011;41384;51.418;7.286;2022-07-22T06:23:08;6.88;;;3.30;;
55539;SDS011;41384;51.418;7.286;2022-07-22T06:25:33;7.72;;;2.85;;
55539;SDS011;41384;51.418;7.286;2022-07-22T06:27:58;6.75;;;2.90;;
55539;SDS011;41384;51.418;7.286;2022-07-22T06:30:24;8.27;;;3.00;;
55539;SDS011;41384;51.418;7.286;2022-07-22T06:32:49;5.97;;;2.50;;
55539;SDS011;41384;51.418;7.286;2022-07-22T06:35:14;4.40;;;2.35;;
55539;SDS011;41384;51.418;7.286;2022-07-22T06:37:39;4.05;;;2.30;;
55539;SDS011;41384;51.418;7.286;2022-07-22T06:40:05;4.10;;;2.47;;
55539;SDS011;41384;51.418;7.286;2022-07-22T06:42:31;6.93;;;2.30;;
55539;SDS011;41384;51.418;7.286;2022-07-22T06:44:56;4.07;;;2.50;;
55539;SDS011;41384;51.418;7.286;2022-07-22T06:47:21;5.40;;;2.53;;
55539;SDS011;41384;51.418;7.286;2022-07-22T06:49:47;6.68;;;2.63;;
55539;SDS011;41384;51.418;7.286;2022-07-22T06:52:12;5.22;;;2.50;;
55539;SDS011;41384;51.418;7.286;2022-07-22T06:54:37;4.78;;;2.40;;
55539;SDS011;41384;51.418;7.286;2022-07-22T06:57:03;4.50;;;2.22;;
55539;SDS011;41384;51.418;7.286;2022-07-22T06:59:28;7.28;;;2.10;;
55539;SDS011;41384;51.418;7.286;2022-07-22T07:01:53;5.85;;;2.45;;
55539;SDS011;41384;51.418;7.286;2022-07-22T07:04:19;5.65;;;2.40;;
55539;SDS011;41384;51.418;7.286;2022-07-22T07:06:44;9.75;;;2.60;;
55539;SDS011;41384;51.418;7.286;2022-07-22T07:09:10;6.65;;;2.30;;
55539;SDS011;41384;51.418;7.286;2022-07-22T07:11:35;6.88;;;2.47;;
55539;SDS011;41384;51.418;7.286;2022-07-22T07:14:00;6.07;;;2.33;;
55539;SDS011;41384;51.418;7.286;2022-07-22T07:16:26;7.13;;;1.98;;
55539;SDS011;41384;51.418;7.286;2022-07-22T07:18:51;7.05;;;2.03;;
55539;SDS011;41384;51.418;7.286;2022-07-22T07:21:16;4.18;;;1.90;;
55539;SDS011;41384;51.418;7.286;2022-07-22T07:23:42;6.22;;;1.90;;
55539;SDS011;41384;51.418;7.286;2022-07-22T07:26:07;4.65;;;2.10;;
55539;SDS011;41384;51.418;7.286;2022-07-22T07:28:32;5.55;;;2.47;;
55539;SDS011;41384;51.418;7.286;2022-07-22T07:30:58;6.82;;;2.30;;
55539;SDS011;41384;51.418;7.286;2022-07-22T07:33:23;4.10;;;2.10;;
55539;SDS011;41384;51.418;7.286;2022-07-22T07:35:49;6.88;;;2.38;;
55539;SDS011;41384;51.418;7.286;2022-07-22T07:38:14;6.55;;;2.53;;
55539;SDS011;41384;51.418;7.286;2022-07-22T07:40:39;6.95;;;2.33;;
55539;SDS011;41384;51.418;7.286;2022-07-22T07:43:05;4.43;;;2.25;;
55539;SDS011;41384;51.418;7.286;2022-07-22T07:45:30;4.97;;;2.50;;
55539;SDS011;41384;51.418;7.286;2022-07-22T07:47:56;5.10;;;2.65;;
55539;SDS011;41384;51.418;7.286;2022-07-22T07:50:21;5.40;;;2.55;;
55539;SDS011;41384;51.418;7.286;2022-07-22T07:52:46;4.18;;;3.10;;
55539;SDS011;41384;51.418;7.286;2022-07-22T07:55:12;5.93;;;3.08;;
55539;SDS011;41384;51.418;7.286;2022-07-22T07:57:39;8.15;;;3.20;;
55539;SDS011;41384;51.418;7.286;2022-07-22T08:00:05;7.35;;;3.40;;
55539;SDS011;41384;51.418;7.286;2022-07-22T08:02:33;7.65;;;3.40;;
55539;SDS011;41384;51.418;7.286;2022-07-22T08:04:59;5.63;;;3.78;;
55539;SDS011;41384;51.418;7.286;2022-07-22T08:07:25;6.07;;;4.00;;
55539;SDS011;41384;51.418;7.286;2022-07-22T08:09:50;6.22;;;4.03;;
55539;SDS011;41384;51.418;7.286;2022-07-22T08:12:15;5.90;;;3.83;;
55539;SDS011;41384;51.418;7.286;2022-07-22T08:14:41;6.82;;;4.47;;
55539;SDS011;41384;51.418;7.286;2022-07-22T08:17:06;6.45;;;4.40;;
55539;SDS011;41384;51.418;7.286;2022-07-22T08:19:31;6.25;;;4.38;;
55539;SDS011;41384;51.418;7.286;2022-07-22T08:21:57;7.15;;;4.85;;
55539;SDS011;41384;51.418;7.286;2022-07-22T08:24:22;6.82;;;4.50;;
55539;SDS011;41384;51.418;7.286;2022-07-22T08:26:47;7.35;;;5.13;;
55539;SDS011;41384;51.418;7.286;2022-07-22T08:29:12;8.30;;;5.05;;
55539;SDS011;41384;51.418;7.286;2022-07-22T08:31:38;7.47;;;5.15;;
55539;SDS011;41384;51.418;7.286;2022-07-22T08:34:03;5.80;;;4.97;;
55539;SDS011;41384;51.418;7.286;2022-07-22T08:36:29;7.60;;;5.38;;
55539;SDS011;41384;51.418;7.286;2022-07-22T08:38:55;7.00;;;5.32;;
55539;SDS011;41384;51.418;7.286;2022-07-22T08:41:22;7.45;;;5.53;;
55539;SDS011;41384;51.418;7.286;2022-07-22T08:43:48;7.97;;;5.55;;
55539;SDS011;41384;51.418;7.286;2022-07-22T08:46:14;8.05;;;5.47;;
55539;SDS011;41384;51.418;7.286;2022-07-22T08:48:39;8.75;;;5.40;;
55539;SDS011;41384;51.418;7.286;2022-07-22T08:51:06;7.82;;;5.60;;
55539;SDS011;41384;51.418;7.286;2022-07-22T08:53:31;7.82;;;6.07;;
55539;SDS011;41384;51.418;7.286;2022-07-22T08:55:57;8.82;;;6.32;;
55539;SDS011;41384;51.418;7.286;2022-07-22T08:58:23;9.50;;;6.38;;
55539;SDS011;41384;51.418;7.286;2022-07-22T09:01:03;6.82;;;5.57;;
55539;SDS011;41384;51.418;7.286;2022-07-22T09:03:52;7.40;;;5.50;;
55539;SDS011;41384;51.418;7.286;2022-07-22T09:06:21;9.43;;;6.03;;
55539;SDS011;41384;51.418;7.286;2022-07-22T09:08:57;8.38;;;6.15;;
55539;SDS011;41384;51.418;7.286;2022-07-22T09:11:28;8.55;;;6.30;;
55539;SDS011;41384;51.418;7.286;2022-07-22T09:13:55;10.63;;;6.63;;
55539;SDS011;41384;51.418;7.286;2022-07-22T09:16:40;11.55;;;6.20;;
55539;SDS011;41384;51.418;7.286;2022-07-22T09:19:07;11.40;;;6.82;;
55539;SDS011;41384;51.418;7.286;2022-07-22T09:21:34;8.18;;;6.30;;
55539;SDS011;41384;51.418;7.286;2022-07-22T09:24:02;11.00;;;6.72;;
55539;SDS011;41384;51.418;7.286;2022-07-22T09:26:28;9.80;;;6.00;;
55539;SDS011;41384;51.418;7.286;2022-07-22T09:28:58;8.07;;;6.57;;
55539;SDS011;41384;51.418;7.286;2022-07-22T09:31:24;10.75;;;6.18;;
55539;SDS011;41384;51.418;7.286;2022-07-22T09:33:50;8.27;;;6.15;;
55539;SDS011;41384;51.418;7.286;2022-07-22T09:36:18;8.98;;;5.88;;
55539;SDS011;41384;51.418;7.286;2022-07-22T09:38:44;8.25;;;6.05;;
55539;SDS011;41384;51.418;7.286;2022-07-22T09:41:09;8.45;;;5.60;;
55539;SDS011;41384;51.418;7.286;2022-07-22T09:43:35;9.23;;;6.05;;
55539;SDS011;41384;51.418;7.286;2022-07-22T09:46:01;9.82;;;6.32;;
55539;SDS011;41384;51.418;7.286;2022-07-22T09:48:26;11.05;;;6.93;;
55539;SDS011;41384;51.418;7.286;2022-07-22T09:50:53;10.50;;;7.50;;
55539;SDS011;41384;51.418;7.286;2022-07-22T09:53:20;10.98;;;7.10;;
55539;SDS011;41384;51.418;7.286;2022-07-22T09:55:47;9.38;;;6.18;;
55539;SDS011;41384;51.418;7.286;2022-07-22T09:58:13;10.75;;;6.20;;
55539;SDS011;41384;51.418;7.286;2022-07-22T10:00:39;9.02;;;6.68;;
55539;SDS011;41384;51.418;7.286;2022-07-22T10:03:06;11.63;;;7.57;;
55539;SDS011;41384;51.418;7.286;2022-07-22T10:05:39;9.93;;;7.38;;
55539;SDS011;41384;51.418;7.286;2022-07-22T10:08:07;10.88;;;7.20;;
55539;SDS011;41384;51.418;7.286;2022-07-22T10:10:34;8.50;;;6.70;;
55539;SDS011;41384;51.418;7.286;2022-07-22T10:13:01;10.93;;;7.95;;
55539;SDS011;41384;51.418;7.286;2022-07-22T10:15:28;10.20;;;7.32;;
55539;SDS011;41384;51.418;7.286;2022-07-22T10:17:56;12.57;;;7.13;;
55539;SDS011;41384;51.418;7.286;2022-07-22T10:20:27;11.68;;;7.88;;
55539;SDS011;41384;51.418;7.286;2022-07-22T10:22:57;10.75;;;7.57;;
55539;SDS011;41384;51.418;7.286;2022-07-22T10:25:28;12.75;;;7.47;;
55539;SDS011;41384;51.418;7.286;2022-07-22T10:30:24;9.82;;;7.32;;
55539;SDS011;41384;51.418;7.286;2022-07-22T10:35:28;11.68;;;7.88;;
55539;SDS011;41384;51.418;7.286;2022-07-22T10:37:55;10.95;;;7.18;;
55539;SDS011;41384;51.418;7.286;2022-07-22T10:40:30;11.27;;;8.10;;
55539;SDS011;41384;51.418;7.286;2022-07-22T10:43:10;10.50;;;8.13;;
55539;SDS011;41384;51.418;7.286;2022-07-22T10:45:41;10.20;;;7.57;;
55539;SDS011;41384;51.418;7.286;2022-07-22T10:48:11;9.05;;;6.63;;
55539;SDS011;41384;51.418;7.286;2022-07-22T10:58:44;11.48;;;7.88;;
55539;SDS011;41384;51.418;7.286;2022-07-22T11:01:14;9.30;;;7.13;;
55539;SDS011;41384;51.418;7.286;2022-07-22T11:03:42;11.60;;;7.68;;
55539;SDS011;41384;51.418;7.286;2022-07-22T11:08:46;9.27;;;6.75;;
55539;SDS011;41384;51.418;7.286;2022-07-22T11:11:13;9.82;;;7.38;;
55539;SDS011;41384;51.418;7.286;2022-07-22T11:13:40;9.32;;;7.38;;
55539;SDS011;41384;51.418;7.286;2022-07-22T11:16:13;10.82;;;7.55;;
55539;SDS011;41384;51.418;7.286;2022-07-22T11:21:19;10.95;;;7.70;;
55539;SDS011;41384;51.418;7.286;2022-07-22T11:23:47;12.93;;;7.75;;
55539;SDS011;41384;51.418;7.286;2022-07-22T11:26:16;12.48;;;7.57;;
55539;SDS011;41384;51.418;7.286;2022-07-22T11:28:43;9.30;;;7.43;;
55539;SDS011;41384;51.418;7.286;2022-07-22T11:31:12;11.32;;;7.75;;
55539;SDS011;41384;51.418;7.286;2022-07-22T11:33:40;9.57;;;7.13;;
55539;SDS011;41384;51.418;7.286;2022-07-22T11:36:06;11.23;;;7.13;;
55539;SDS011;41384;51.418;7.286;2022-07-22T11:38:48;10.15;;;7.53;;
55539;SDS011;41384;51.418;7.286;2022-07-22T11:41:17;9.13;;;6.70;;
55539;SDS011;41384;51.418;7.286;2022-07-22T11:43:45;9.30;;;7.15;;
55539;SDS011;41384;51.418;7.286;2022-07-22T11:46:12;8.55;;;6.55;;
55539;SDS011;41384;51.418;7.286;2022-07-22T11:48:39;12.18;;;7.00;;
55539;SDS011;41384;51.418;7.286;2022-07-22T11:51:06;10.45;;;6.90;;
55539;SDS011;41384;51.418;7.286;2022-07-22T11:53:34;12.18;;;6.85;;
55539;SDS011;41384;51.418;7.286;2022-07-22T11:56:01;10.05;;;6.47;;
55539;SDS011;41384;51.418;7.286;2022-07-22T11:58:37;9.07;;;6.38;;
55539;SDS011;41384;51.418;7.286;2022-07-22T12:01:04;9.40;;;7.20;;
55539;SDS011;41384;51.418;7.286;2022-07-22T12:03:31;9.10;;;6.47;;
55539;SDS011;41384;51.418;7.286;2022-07-22T12:06:00;9.63;;;7.43;;
55539;SDS011;41384;51.418;7.286;2022-07-22T12:08:26;9.02;;;6.63;;
55539;SDS011;41384;51.418;7.286;2022-07-22T12:10:51;13.02;;;6.70;;
55539;SDS011;41384;51.418;7.286;2022-07-22T12:13:17;9.00;;;6.20;;
55539;SDS011;41384;51.418;7.286;2022-07-22T12:15:43;7.90;;;6.05;;
55539;SDS011;41384;51.418;7.286;2022-07-22T12:18:18;8.25;;;6.60;;
55539;SDS011;41384;51.418;7.286;2022-07-22T12:20:46;11.82;;;7.07;;
55539;SDS011;41384;51.418;7.286;2022-07-22T12:23:13;11.25;;;7.05;;
55539;SDS011;41384;51.418;7.286;2022-07-22T12:28:21;9.30;;;7.13;;
55539;SDS011;41384;51.418;7.286;2022-07-22T12:30:52;8.75;;;6.32;;
55539;SDS011;41384;51.418;7.286;2022-07-22T12:33:19;9.85;;;6.65;;
55539;SDS011;41384;51.418;7.286;2022-07-22T12:36:02;7.60;;;5.75;;
55539;SDS011;41384;51.418;7.286;2022-07-22T12:38:32;11.02;;;5.70;;
55539;SDS011;41384;51.418;7.286;2022-07-22T12:43:48;7.00;;;5.65;;
55539;SDS011;41384;51.418;7.286;2022-07-22T12:46:15;8.35;;;6.15;;
55539;SDS011;41384;51.418;7.286;2022-07-22T12:48:48;12.23;;;7.10;;
55539;SDS011;41384;51.418;7.286;2022-07-22T12:51:15;10.85;;;6.93;;
55539;SDS011;41384;51.418;7.286;2022-07-22T12:53:40;9.13;;;6.20;;
55539;SDS011;41384;51.418;7.286;2022-07-22T12:56:06;8.68;;;6.38;;
55539;SDS011;41384;51.418;7.286;2022-07-22T12:58:35;9.95;;;7.20;;
55539;SDS011;41384;51.418;7.286;2022-07-22T13:01:02;9.10;;;6.95;;
55539;SDS011;41384;51.418;7.286;2022-07-22T13:03:29;8.63;;;6.40;;
55539;SDS011;41384;51.418;7.286;2022-07-22T13:05:59;9.05;;;6.30;;
55539;SDS011;41384;51.418;7.286;2022-07-22T13:08:27;10.20;;;6.73;;
55539;SDS011;41384;51.418;7.286;2022-07-22T13:10:53;9.23;;;6.55;;
55539;SDS011;41384;51.418;7.286;2022-07-22T13:13:19;10.10;;;6.90;;
55539;SDS011;41384;51.418;7.286;2022-07-22T13:15:48;9.65;;;6.82;;
55539;SDS011;41384;51.418;7.286;2022-07-22T13:18:14;11.25;;;7.30;;
55539;SDS011;41384;51.418;7.286;2022-07-22T13:20:39;10.10;;;7.03;;
55539;SDS011;41384;51.418;7.286;2022-07-22T13:23:05;10.18;;;7.05;;
55539;SDS011;41384;51.418;7.286;2022-07-22T13:25:30;10.30;;;6.97;;
55539;SDS011;41384;51.418;7.286;2022-07-22T13:27:57;13.00;;;8.57;;
55539;SDS011;41384;51.418;7.286;2022-07-22T13:30:22;14.10;;;9.10;;
55539;SDS011;41384;51.418;7.286;2022-07-22T13:32:48;15.02;;;9.13;;
55539;SDS011;41384;51.418;7.286;2022-07-22T13:35:13;16.20;;;8.30;;
55539;SDS011;41384;51.418;7.286;2022-07-22T13:37:39;18.30;;;9.00;;
55539;SDS011;41384;51.418;7.286;2022-07-22T13:40:05;15.07;;;9.15;;
55539;SDS011;41384;51.418;7.286;2022-07-22T13:42:30;12.57;;;8.18;;
55539;SDS011;41384;51.418;7.286;2022-07-22T13:44:56;13.52;;;9.00;;
55539;SDS011;41384;51.418;7.286;2022-07-22T13:47:21;14.07;;;9.05;;
55539;SDS011;41384;51.418;7.286;2022-07-22T13:49:47;11.95;;;8.15;;
55539;SDS011;41384;51.418;7.286;2022-07-22T13:52:13;14.70;;;9.52;;
55539;SDS011;41384;51.418;7.286;2022-07-22T13:54:39;12.07;;;8.60;;
55539;SDS011;41384;51.418;7.286;2022-07-22T13:57:04;13.38;;;7.82;;
55539;SDS011;41384;51.418;7.286;2022-07-22T13:59:30;10.75;;;7.15;;
55539;SDS011;41384;51.418;7.286;2022-07-22T14:01:56;8.93;;;6.63;;
55539;SDS011;41384;51.418;7.286;2022-07-22T14:04:22;10.82;;;7.20;;
55539;SDS011;41384;51.418;7.286;2022-07-22T14:06:48;8.73;;;6.47;;
55539;SDS011;41384;51.418;7.286;2022-07-22T14:09:14;8.65;;;6.43;;
55539;SDS011;41384;51.418;7.286;2022-07-22T14:11:39;10.80;;;7.20;;
55539;SDS011;41384;51.418;7.286;2022-07-22T14:14:04;10.55;;;7.35;;
55539;SDS011;41384;51.418;7.286;2022-07-22T14:16:31;10.07;;;7.10;;
55539;SDS011;41384;51.418;7.286;2022-07-22T14:19:00;11.77;;;7.85;;
55539;SDS011;41384;51.418;7.286;2022-07-22T14:21:30;11.32;;;8.07;;
55539;SDS011;41384;51.418;7.286;2022-07-22T14:23:55;12.40;;;8.30;;
55539;SDS011;41384;51.418;7.286;2022-07-22T14:26:21;12.07;;;7.90;;
55539;SDS011;41384;51.418;7.286;2022-07-22T14:28:46;11.85;;;8.48;;
55539;SDS011;41384;51.418;7.286;2022-07-22T14:31:12;10.68;;;7.10;;
55539;SDS011;41384;51.418;7.286;2022-07-22T14:33:37;12.60;;;7.50;;
55539;SDS011;41384;51.418;7.286;2022-07-22T14:36:02;11.48;;;7.38;;
55539;SDS011;41384;51.418;7.286;2022-07-22T14:38:28;12.48;;;8.02;;
55539;SDS011;41384;51.418;7.286;2022-07-22T14:40:53;12.30;;;7.88;;
55539;SDS011;41384;51.418;7.286;2022-07-22T14:43:19;13.60;;;8.18;;
55539;SDS011;41384;51.418;7.286;2022-07-22T14:45:44;12.25;;;8.07;;
55539;SDS011;41384;51.418;7.286;2022-07-22T14:48:09;12.57;;;8.10;;
55539;SDS011;41384;51.418;7.286;2022-07-22T14:50:35;12.40;;;7.75;;
55539;SDS011;41384;51.418;7.286;2022-07-22T14:53:00;10.02;;;7.80;;
55539;SDS011;41384;51.418;7.286;2022-07-22T14:55:25;11.43;;;8.60;;
55539;SDS011;41384;51.418;7.286;2022-07-22T14:57:50;11.45;;;8.40;;
55539;SDS011;41384;51.418;7.286;2022-07-22T15:00:16;11.95;;;8.35;;
55539;SDS011;41384;51.418;7.286;2022-07-22T15:02:41;12.75;;;8.68;;